25 de Mayo, Argentina
Current Conditions -  °F | °C
As of 10:00 PM on Sunday 23 Nov 2014 (Local Time) from SAME Reporting Station
Thunderstorm Thunderstorm  
Wind Chill: 28°   Ceiling: Unl
Heat Index: 28°   Visibility: 6mi
Dew Point: 11°   Wind: 2mph
Humidity: 35%   Direction: 50°NE
Pressure: 29.59"   Gusts: NA
Location:  34.58°S, 68.55°W
Report Text: SAME 240100Z 05002KT 9999 VCTS FEW045CB28/11 Q1002
Loading
Personal Weather Stations






























Interactive Weather Map New forecast layout! Learn more

10-Day Weather Forecast

Advertisements
Track Severe Weather on mobile